Clarion, IA

13:19 CDT le 23 septembre 2014 (GMT -0500)
Clarion Municipal | Change Station
CLOSE
Current Station
Aéroport
Location: Clarion,
Altitude: 1161 ft
Stations météo à proximité

Alt. 1161 ft 42.74 °N, 93.76 °W | Updated 29 minutes ago

Clear
Ciel dégagé
73 ° F
Paraît 73 ° F
N
14
Vent Variable Vent de Sud
Gusts 21 mph

Aujourd'hui
Haut(e) -- | Bas -- ° F
--% Risque de précip.
Hier
Haut(e) -- | Bas -- ° F
Precip. -- pouce
7:03 AM 7:10 PM
Lune descendante, 0% visible
Pression 30.22 pouce
Visibilité 10.0 Miles terrestres
Nuages Ciel dégagé
Point de rosée 50 ° F
Humidité 44%
Précipitations 0.00 pouce
Profondeur de la couche neigeuse Non disponible.
UV 7 sur 12
Pollen 3.90 sur 12
Qualité de l'air Non disponible.
Flu Activity Non disponible.
METAR KCAV 231750Z AUTO 17012G18KT 10SM CLR 23/10 A3022 RMK AO2

More Conditions Fewer Conditions

Pression 30.22 pouce
Visibilité 10.0 Miles terrestres
Nuages Ciel dégagé
Point de rosée 50 ° F
Humidité 44%
Précipitations 0.00 pouce
Profondeur de la couche neigeuse Non disponible.
UV 7 sur 12
Pollen 3.90 sur 12
Qualité de l'air Non disponible.
Flu Activity Non disponible.
METAR KCAV 231750Z AUTO 17012G18KT 10SM CLR 23/10 A3022 RMK AO2

More Conditions Fewer Conditions

10-Day Weather Forecast

Almanac

Astronomie

Sep. 23, 2014 Lever Coucher
Temps réel 07:03 CDT 19:10 CDT
Crépuscule civil 06:35 CDT 19:38 CDT
Crépuscule nautique 06:02 CDT 20:11 CDT
Crépuscule astronomique 05:28 CDT 20:45 CDT
Lune 06:28 CDT 18:49 CDT
Durée de lumière visible 13h 03m
Longueur du jour
12h 07m
Tomorrow will be 2m 53s shorter.
Lune descendante, 0% of the Moon is Illuminated
Aujourd'hui
Lune descendante
Sep 24
Nouveau
Oct 1
Premier quartier
Oct 8
Pleine lune
Oct 15
Dernier quartier

Extrêmes aujourd'hui

State Highs State Lows

Community

WunderPhotos

Upload Photos

1,755,765 Photos téléchargées !

Nearby

Épaisseur de neige

Station Depth Altitude
Pas de nouvelles chutes de neige

Activité sismique

Ville Distance Mag. Time & Date
No recent earthquake activity has been reported nearby.
Minimum magnitude displayed is 2.5.

Températures des eaux côtières

Lieu Température
Aucun rapport de station

Stations météo à proximité